Junius, New York
Current Conditions -  °F | °C
As of 6:53 AM on Monday 24 Nov 2014 (Local Time) from KPEO Reporting Station
Scattered Clouds Scattered Clouds  
Wind Chill: 58°   Ceiling: Unl
Heat Index: 58°   Visibility: 10mi
Dew Point: 51°   Wind: 17mph
Humidity: 78%   Direction: 190°S
Pressure: 29.4"   Gusts: 26mph
Location:  42.9454°N, 76.8904°W
Report Text: KPEO 241153Z AUTO 19015G23KT 10SM SCT024 14/11 A2940 RMK AO2 PK WND 21027/1143 SLP956 60011 70011 T01440106 10150 20094 55010
Loading
Personal Weather Stations






























Interactive Weather Map New forecast layout! Learn more

10-Day Weather Forecast

Advertisements
Track Severe Weather on mobile